Terminal Aerodrome Forecast
Issued by NWS

Home | Current Version | Previous Version | Text Only | Print | Product List | Glossary On
Versions: 1 2 3 4 5 6 7 8 9 10 11 12 13 14 15 16 17 18 19
000
FTUS41 KPBZ 020500
TAFZZV
TAF
KZZV 020529Z 0206/0306 21007KT P6SM SCT050
     FM020900 22007KT P6SM SCT015 BKN080
     FM021400 22008KT 6SM -SHRA BKN040
      TEMPO 0215/0219 2SM -TSRA BKN025CB
     FM022100 24008KT P6SM BKN050=

USA.gov is the U.S. government's official web portal to all federal, state and local government web resources and services.